TimeHST,TemperatureF,Dew PointF,Humidity,Sea Level PressureIn,VisibilityMPH,Wind Direction,Wind SpeedMPH,Gust SpeedMPH,PrecipitationIn,Events,Conditions,WindDirDegrees,DateUTC
12:07 AM,75.2,71.6,89,30.09,6.2,ENE,9.2,20.7,N/A,,Overcast,60,2013-01-03 10:07:00
12:57 AM,73.4,72.0,95,30.06,10.0,ENE,10.4,17.3,N/A,,Overcast,60,2013-01-03 10:57:00
1:19 AM,73.4,73.4,100,30.09,10.0,ENE,6.9,-,0.02,Rain,Light Rain,70,2013-01-03 11:19:00
1:57 AM,73.4,68.0,83,30.09,10.0,ENE,8.1,18.4,0.07,Rain,Light Rain,60,2013-01-03 11:57:00
2:04 AM,71.6,68.0,88,30.09,6.2,ENE,8.1,-,0.00,,Overcast,60,2013-01-03 12:04:00
2:57 AM,71.6,68.0,88,30.06,10.0,ENE,10.4,19.6,0.02,Rain,Light Rain,60,2013-01-03 12:57:00
3:57 AM,71.6,68.0,88,30.06,10.0,NE,13.8,20.7,0.00,Rain,Light Rain,50,2013-01-03 13:57:00
4:04 AM,69.8,68.0,94,30.09,6.2,ENE,12.7,20.7,0.00,,Overcast,60,2013-01-03 14:04:00
4:13 AM,69.8,68.0,94,30.09,6.2,ENE,13.8,20.7,0.00,Rain,Light Rain,70,2013-01-03 14:13:00
4:59 AM,69.8,68.0,94,30.09,6.2,ENE,13.8,21.9,0.01,Rain,Light Rain,60,2013-01-03 14:59:00
5:57 AM,69.8,68.0,94,30.06,10.0,ENE,10.4,18.4,0.02,Rain,Light Rain,60,2013-01-03 15:57:00
6:57 AM,69.8,68.0,94,30.03,10.0,ENE,10.4,20.7,0.00,,Overcast,60,2013-01-03 16:57:00
7:07 AM,69.8,68.0,94,30.07,6.2,ENE,9.2,18.4,0.00,Rain,Light Rain,70,2013-01-03 17:07:00
7:57 AM,71.6,68.0,88,30.04,10.0,NE,10.4,-,0.00,,Overcast,50,2013-01-03 17:57:00
8:04 AM,71.6,68.0,88,30.09,6.2,NE,12.7,-,N/A,,Overcast,50,2013-01-03 18:04:00
8:53 AM,71.6,68.0,88,-9999,6.2,NE,13.8,20.7,N/A,,Overcast,50,2013-01-03 18:53:00
8:57 AM,71.6,68.0,88,-9999,10.0,ENE,12.7,20.7,0.00,Rain,Light Rain,60,2013-01-03 18:57:00
9:00 AM,-9999,-9999,N/A,-9999,-9999.0,North,-9999.0,-,N/A,,Unknown,0,2013-01-03 19:00:00
9:04 AM,71.6,68.0,88,30.06,6.2,ENE,10.4,20.7,0.01,Rain,Light Rain,60,2013-01-03 19:04:00
9:57 AM,71.6,68.0,88,-9999,10.0,NE,10.4,-,0.01,,Mostly Cloudy,40,2013-01-03 19:57:00
10:10 AM,73.4,71.6,94,30.07,6.2,ENE,13.8,23.0,0.00,Rain,Light Rain,60,2013-01-03 20:10:00
10:24 AM,73.4,71.6,94,30.08,6.2,NE,9.2,19.6,0.00,Rain,Light Rain,50,2013-01-03 20:24:00
10:36 AM,73.4,71.6,94,30.07,6.2,NE,9.2,-,0.01,,Overcast,50,2013-01-03 20:36:00
10:57 AM,75.2,72.0,90,30.07,10.0,ENE,11.5,19.6,0.01,,Overcast,60,2013-01-03 20:57:00
11:37 AM,-9999,-9999,N/A,30.07,6.2,ENE,17.3,26.5,0.01,Rain,Light Rain,70,2013-01-03 21:37:00
11:57 AM,77.0,70.0,79,30.07,10.0,ENE,9.2,-,0.02,,Overcast,60,2013-01-03 21:57:00
12:37 PM,77.0,69.8,78,30.06,6.2,ENE,10.4,17.3,0.00,,Overcast,60,2013-01-03 22:37:00
12:57 PM,73.4,69.1,86,30.06,10.0,ENE,10.4,21.9,0.01,Rain,Light Rain,70,2013-01-03 22:57:00
1:13 PM,75.2,68.0,78,30.08,6.2,ENE,9.2,-,0.00,,Overcast,70,2013-01-03 23:13:00
1:27 PM,75.2,68.0,78,30.07,6.2,ENE,16.1,24.2,0.00,Rain,Light Rain,60,2013-01-03 23:27:00
1:57 PM,75.2,68.0,78,30.03,10.0,NE,12.7,23.0,0.00,,Overcast,50,2013-01-03 23:57:00
2:46 PM,75.2,68.0,78,30.06,6.2,NE,10.4,26.5,0.00,Rain,Light Rain,50,2013-01-04 00:46:00
2:57 PM,75.2,68.0,78,30.03,10.0,NE,13.8,21.9,0.00,,Overcast,50,2013-01-04 00:57:00
3:52 PM,75.2,68.0,78,-9999,6.2,ENE,11.5,23.0,0.00,,Overcast,70,2013-01-04 01:52:00
3:57 PM,75.2,68.0,78,30.03,10.0,ENE,12.7,23.0,0.00,,Overcast,60,2013-01-04 01:57:00
4:36 PM,75.2,66.2,73,-9999,6.2,East,11.5,16.1,0.00,Rain,Light Rain,80,2013-01-04 02:36:00
4:57 PM,75.2,66.9,75,30.06,10.0,NE,12.7,24.2,0.00,,Overcast,50,2013-01-04 02:57:00
5:14 PM,75.2,66.2,73,-9999,6.2,ENE,11.5,21.9,N/A,,Overcast,60,2013-01-04 03:14:00
5:57 PM,75.2,66.0,73,30.09,10.0,NE,11.5,21.9,N/A,,Overcast,40,2013-01-04 03:57:00
6:57 PM,75.2,68.0,78,30.06,10.0,NE,16.1,27.6,0.01,Rain,Light Rain,40,2013-01-04 04:57:00
7:57 PM,73.4,66.0,78,30.07,10.0,ENE,15.0,25.3,0.00,,Overcast,60,2013-01-04 05:57:00
8:57 PM,73.4,64.0,72,30.08,10.0,NE,16.1,25.3,N/A,,Mostly Cloudy,50,2013-01-04 06:57:00
9:57 PM,73.4,64.0,72,-9999,10.0,ENE,11.5,21.9,N/A,,Mostly Cloudy,70,2013-01-04 07:57:00
10:57 PM,71.6,63.0,74,-9999,10.0,ENE,15.0,24.2,N/A,,Overcast,60,2013-01-04 08:57:00
11:57 PM,-9999,-9999,N/A,-9999,10.0,ENE,11.5,25.3,N/A,,Overcast,70,2013-01-04 09:57:00